createdAt,value
2019-03-23T00:00:01.326Z,32.67
2019-03-23T00:02:35.909Z,34.83
2019-03-23T00:05:09.210Z,36.80
2019-03-23T00:07:42.449Z,37.73
2019-03-23T00:10:15.279Z,33.57
2019-03-23T00:12:47.856Z,32.73
2019-03-23T00:15:20.465Z,33.97
2019-03-23T00:17:52.991Z,36.17
2019-03-23T00:20:25.835Z,32.80
2019-03-23T00:22:58.336Z,34.27
2019-03-23T00:25:31.062Z,35.83
2019-03-23T00:28:03.769Z,31.00
2019-03-23T00:30:36.431Z,34.63
2019-03-23T00:33:09.002Z,33.27
2019-03-23T00:35:41.672Z,31.50
2019-03-23T00:38:14.239Z,30.63
2019-03-23T00:40:48.534Z,30.23
2019-03-23T00:43:21.471Z,30.80
2019-03-23T00:45:55.150Z,29.03
2019-03-23T00:48:27.897Z,29.27
2019-03-23T00:51:00.401Z,27.70
2019-03-23T00:53:32.950Z,27.90
2019-03-23T00:56:05.979Z,29.50
2019-03-23T00:58:38.521Z,33.57
2019-03-23T01:01:11.318Z,30.60
2019-03-23T01:03:45.121Z,31.07
2019-03-23T01:06:17.881Z,31.23
2019-03-23T01:08:50.797Z,32.67
2019-03-23T01:11:23.608Z,32.60
2019-03-23T01:13:56.262Z,33.07
2019-03-23T01:16:29.068Z,41.70
2019-03-23T01:19:01.592Z,34.40
2019-03-23T01:21:34.207Z,37.93
2019-03-23T01:24:06.743Z,30.13
2019-03-23T01:26:39.262Z,30.17
2019-03-23T01:29:11.870Z,30.63
2019-03-23T01:31:44.577Z,31.37
2019-03-23T01:34:17.409Z,34.07
2019-03-23T01:36:49.893Z,28.70
2019-03-23T01:39:22.565Z,32.40
2019-03-23T01:41:55.004Z,31.73
2019-03-23T01:44:27.746Z,32.03
2019-03-23T01:47:00.065Z,32.73
2019-03-23T01:49:32.571Z,31.93
2019-03-23T01:52:05.226Z,33.33
2019-03-23T01:54:37.662Z,37.67
2019-03-23T01:57:10.226Z,34.93
2019-03-23T01:59:43.301Z,30.80
2019-03-23T02:02:16.662Z,33.97
2019-03-23T02:04:49.397Z,32.73
2019-03-23T02:07:21.977Z,35.73
2019-03-23T02:09:54.600Z,35.60
2019-03-23T02:12:27.242Z,37.37
2019-03-23T02:14:59.939Z,38.97
2019-03-23T02:17:32.572Z,41.57
2019-03-23T02:20:05.611Z,43.03
2019-03-23T02:22:38.162Z,42.90
2019-03-23T02:25:11.124Z,39.37
2019-03-23T02:27:43.994Z,43.33
2019-03-23T02:30:16.942Z,41.23
2019-03-23T02:32:49.528Z,40.63
2019-03-23T02:35:21.950Z,42.00
2019-03-23T02:37:54.521Z,39.27
2019-03-23T02:40:27.067Z,42.03
2019-03-23T02:42:59.827Z,42.07
2019-03-23T02:45:32.372Z,44.80
2019-03-23T02:48:05.041Z,44.23
2019-03-23T02:50:37.689Z,43.27
2019-03-23T02:53:10.200Z,43.63
2019-03-23T02:55:43.013Z,47.60
2019-03-23T02:58:15.530Z,44.60
2019-03-23T03:00:48.508Z,46.67
2019-03-23T03:03:22.093Z,49.47
2019-03-23T03:05:54.801Z,50.83
2019-03-23T03:08:27.402Z,52.33
2019-03-23T03:11:00.051Z,55.27
2019-03-23T03:13:32.822Z,52.63
2019-03-23T03:16:05.496Z,50.80
2019-03-23T03:18:37.970Z,57.60
2019-03-23T03:21:10.914Z,50.13
2019-03-23T03:23:43.753Z,47.43
2019-03-23T03:26:16.200Z,51.93
2019-03-23T03:28:48.599Z,47.80
2019-03-23T03:31:21.233Z,52.20
2019-03-23T03:33:53.807Z,53.33
2019-03-23T03:36:29.956Z,51.70
2019-03-23T03:39:00.950Z,46.20
2019-03-23T03:41:35.630Z,49.80
2019-03-23T03:44:08.168Z,53.97
2019-03-23T03:46:40.751Z,54.77
2019-03-23T03:49:13.319Z,58.43
2019-03-23T03:51:46.939Z,49.33
2019-03-23T03:54:20.570Z,50.47
2019-03-23T03:56:53.177Z,49.27
2019-03-23T03:59:25.666Z,61.27
2019-03-23T04:01:58.249Z,52.30
2019-03-23T04:04:31.017Z,55.30
2019-03-23T04:07:03.718Z,64.60
2019-03-23T04:09:36.358Z,68.30
2019-03-23T04:12:09.005Z,64.47
2019-03-23T04:14:41.770Z,62.00
2019-03-23T04:17:14.358Z,56.73
2019-03-23T04:19:46.930Z,57.57
2019-03-23T04:22:19.502Z,56.10
2019-03-23T04:24:52.084Z,55.80
2019-03-23T04:27:24.510Z,52.60
2019-03-23T04:29:57.243Z,47.53
2019-03-23T04:32:29.964Z,53.70
2019-03-23T04:35:02.582Z,54.07
2019-03-23T04:37:35.155Z,54.40
2019-03-23T04:40:08.681Z,56.53
2019-03-23T04:42:41.314Z,57.73
2019-03-23T04:45:14.386Z,55.13
2019-03-23T04:47:46.926Z,55.47
2019-03-23T04:50:19.494Z,55.43
2019-03-23T04:52:52.067Z,60.43
2019-03-23T04:55:24.746Z,62.17
2019-03-23T04:57:57.350Z,60.67
2019-03-23T05:00:30.018Z,62.93
2019-03-23T05:03:02.866Z,66.50
2019-03-23T05:05:35.525Z,63.93
2019-03-23T05:08:08.038Z,63.40
2019-03-23T05:10:40.590Z,66.97
2019-03-23T05:13:13.205Z,59.77
2019-03-23T05:15:45.745Z,64.03
2019-03-23T05:18:18.425Z,65.60
2019-03-23T05:20:51.171Z,64.40
2019-03-23T05:23:23.906Z,73.37
2019-03-23T05:25:56.332Z,68.33
2019-03-23T05:28:28.848Z,67.13
2019-03-23T05:31:01.518Z,69.30
2019-03-23T05:33:34.303Z,76.60
2019-03-23T05:36:06.844Z,71.23
2019-03-23T05:38:44.373Z,67.97
2019-03-23T05:41:13.734Z,67.93
2019-03-23T05:43:46.159Z,68.53
2019-03-23T05:46:18.840Z,75.17
2019-03-23T05:48:51.590Z,64.83
2019-03-23T05:51:24.220Z,62.93
2019-03-23T05:53:57.114Z,65.63
2019-03-23T05:56:29.879Z,62.20
2019-03-23T05:59:03.142Z,56.33
2019-03-23T06:01:35.801Z,60.80
2019-03-23T06:04:08.262Z,58.17
2019-03-23T06:06:40.630Z,58.17
2019-03-23T06:09:13.260Z,59.50
2019-03-23T06:11:45.612Z,57.60
2019-03-23T06:14:18.154Z,58.97
2019-03-23T06:16:50.689Z,56.47
2019-03-23T06:19:28.572Z,54.60
2019-03-23T06:22:09.974Z,55.37
2019-03-23T06:24:51.116Z,52.83
2019-03-23T06:27:24.639Z,53.33
2019-03-23T06:29:57.209Z,51.97
2019-03-23T06:32:29.779Z,46.73
2019-03-23T06:35:03.499Z,47.60
2019-03-23T06:37:36.099Z,47.77
2019-03-23T06:40:09.338Z,45.57
2019-03-23T06:42:41.957Z,42.60
2019-03-23T06:45:14.726Z,41.80
2019-03-23T06:47:47.237Z,36.57
2019-03-23T06:50:19.953Z,38.03
2019-03-23T06:52:52.639Z,34.03
2019-03-23T06:55:25.110Z,36.07
2019-03-23T06:57:57.699Z,34.17
2019-03-23T07:00:30.449Z,35.07
2019-03-23T07:03:02.968Z,31.17
2019-03-23T07:05:35.620Z,31.83
2019-03-23T07:08:07.990Z,29.17
2019-03-23T07:10:40.578Z,31.40
2019-03-23T07:13:13.149Z,26.37
2019-03-23T07:15:45.729Z,29.03
2019-03-23T07:18:18.079Z,29.73
2019-03-23T07:20:50.697Z,30.00
2019-03-23T07:23:23.049Z,27.17
2019-03-23T07:25:55.780Z,26.30
2019-03-23T07:28:29.261Z,27.47
2019-03-23T07:31:01.670Z,30.43
2019-03-23T07:33:34.103Z,26.37
2019-03-23T07:36:06.891Z,25.23
2019-03-23T07:38:39.339Z,24.50
2019-03-23T07:41:11.979Z,24.63
2019-03-23T07:43:44.490Z,22.70
2019-03-23T07:46:16.921Z,23.83
2019-03-23T07:48:49.399Z,25.80
2019-03-23T07:51:22.069Z,24.13
2019-03-23T07:53:54.579Z,24.63
2019-03-23T07:56:27.269Z,23.93
2019-03-23T07:58:59.807Z,24.53
2019-03-23T08:01:32.470Z,20.47
2019-03-23T08:04:04.968Z,21.10
2019-03-23T08:06:37.679Z,19.10
2019-03-23T08:09:20.021Z,18.43
2019-03-23T08:11:44.368Z,18.10
2019-03-23T08:14:16.970Z,15.50
2019-03-23T08:16:49.480Z,15.80
2019-03-23T08:19:22.144Z,14.93
2019-03-23T08:21:54.870Z,14.40
2019-03-23T08:24:27.440Z,11.90
2019-03-23T08:26:59.928Z,13.87
2019-03-23T08:29:32.559Z,10.73
2019-03-23T08:32:05.292Z,12.07
2019-03-23T08:34:37.771Z,12.53
2019-03-23T08:37:11.519Z,12.17
2019-03-23T08:39:48.483Z,12.27
2019-03-23T08:42:17.954Z,11.47
2019-03-23T08:44:50.589Z,12.53
2019-03-23T08:47:23.669Z,10.93
2019-03-23T08:49:56.468Z,13.13
2019-03-23T08:52:29.178Z,10.60
2019-03-23T08:55:01.971Z,11.40
2019-03-23T08:57:34.472Z,8.63
2019-03-23T09:00:07.558Z,8.50
2019-03-23T09:02:40.127Z,8.77
2019-03-23T09:05:12.867Z,8.70
2019-03-23T09:07:45.410Z,10.90
2019-03-23T09:10:17.799Z,10.97
2019-03-23T09:12:50.232Z,9.23
2019-03-23T09:15:22.767Z,10.13
2019-03-23T09:17:55.257Z,8.13
2019-03-23T09:20:29.425Z,10.47
2019-03-23T09:23:01.839Z,12.53
2019-03-23T09:25:34.417Z,11.03
2019-03-23T09:28:06.889Z,7.33
2019-03-23T09:30:39.769Z,8.10
2019-03-23T09:33:12.719Z,7.33
2019-03-23T09:35:45.219Z,8.13
2019-03-23T09:38:17.870Z,11.80
2019-03-23T09:40:50.349Z,8.47
2019-03-23T09:43:23.370Z,8.33
2019-03-23T09:45:56.339Z,8.23
2019-03-23T09:48:28.949Z,10.27
2019-03-23T09:51:01.749Z,11.40
2019-03-23T09:53:34.399Z,8.93
2019-03-23T09:56:08.189Z,8.93
2019-03-23T09:58:40.689Z,9.40
2019-03-23T10:01:13.448Z,10.03
2019-03-23T10:03:46.219Z,9.60
2019-03-23T10:06:18.829Z,8.20
2019-03-23T10:08:51.314Z,11.60
2019-03-23T10:11:23.725Z,9.10
2019-03-23T10:13:56.382Z,6.33
2019-03-23T10:16:28.946Z,9.57
2019-03-23T10:19:01.367Z,9.00
2019-03-23T10:21:33.904Z,7.97
2019-03-23T10:24:06.421Z,8.67
2019-03-23T10:26:39.113Z,5.37
2019-03-23T10:29:11.613Z,6.57
2019-03-23T10:31:44.153Z,7.70
2019-03-23T10:34:16.953Z,9.30
2019-03-23T10:36:50.435Z,6.73
2019-03-23T10:39:22.833Z,7.30
2019-03-23T10:41:55.523Z,7.10
2019-03-23T10:44:28.185Z,9.40
2019-03-23T10:47:00.549Z,5.83
2019-03-23T10:49:32.948Z,8.83
2019-03-23T10:52:06.661Z,7.17
2019-03-23T10:54:39.116Z,7.53
2019-03-23T10:57:12.669Z,8.13
2019-03-23T10:59:45.233Z,7.17
2019-03-23T11:02:18.118Z,7.37
2019-03-23T11:04:50.656Z,7.63
2019-03-23T11:07:23.134Z,9.23
2019-03-23T11:09:55.586Z,8.80
2019-03-23T11:12:28.213Z,7.87
2019-03-23T11:15:00.705Z,8.43
2019-03-23T11:17:33.589Z,11.47
2019-03-23T11:20:07.285Z,9.30
2019-03-23T11:22:39.733Z,8.17
2019-03-23T11:25:12.586Z,6.97
2019-03-23T11:27:45.302Z,9.00
2019-03-23T11:30:18.113Z,9.07
2019-03-23T11:32:50.805Z,7.53
2019-03-23T11:35:23.668Z,7.30
2019-03-23T11:37:56.441Z,8.83
2019-03-23T11:40:29.082Z,8.90
2019-03-23T11:43:01.842Z,9.53
2019-03-23T11:45:34.367Z,10.27
2019-03-23T11:48:07.156Z,8.23
2019-03-23T11:50:39.894Z,7.80
2019-03-23T11:53:12.711Z,8.47
2019-03-23T11:55:45.445Z,9.20
2019-03-23T11:58:18.226Z,8.23
2019-03-23T12:00:50.919Z,7.80
2019-03-23T12:03:23.542Z,9.27
2019-03-23T12:05:56.235Z,8.80
2019-03-23T12:08:28.914Z,9.77
2019-03-23T12:11:03.088Z,6.73
2019-03-23T12:13:36.118Z,7.27
2019-03-23T12:16:09.136Z,7.67
2019-03-23T12:18:41.938Z,7.53
2019-03-23T12:21:14.670Z,9.97
2019-03-23T12:23:47.254Z,8.67
2019-03-23T12:26:19.978Z,12.80
2019-03-23T12:28:52.506Z,9.90
2019-03-23T12:31:25.422Z,13.07
2019-03-23T12:33:57.945Z,8.43
2019-03-23T12:36:30.679Z,11.80
2019-03-23T12:39:03.326Z,9.93
2019-03-23T12:41:36.441Z,13.90
2019-03-23T12:44:08.986Z,11.40
2019-03-23T12:46:48.318Z,10.77
2019-03-23T12:49:15.700Z,9.17
2019-03-23T12:51:48.307Z,9.20
2019-03-23T12:54:20.855Z,11.03
2019-03-23T12:56:53.564Z,13.23
2019-03-23T12:59:26.163Z,10.10
2019-03-23T13:01:59.123Z,10.83
2019-03-23T13:04:31.779Z,10.87
2019-03-23T13:07:05.286Z,12.77
2019-03-23T13:09:37.918Z,10.73
2019-03-23T13:12:10.489Z,11.57
2019-03-23T13:14:43.120Z,11.00
2019-03-23T13:17:15.910Z,9.73
2019-03-23T13:19:48.630Z,9.93
2019-03-23T13:22:21.519Z,13.20
2019-03-23T13:24:54.073Z,11.93
2019-03-23T13:27:26.656Z,12.97
2019-03-23T13:29:59.265Z,13.97
2019-03-23T13:32:32.001Z,11.57
2019-03-23T13:35:04.562Z,11.03
2019-03-23T13:37:36.952Z,10.33
2019-03-23T13:40:09.802Z,11.17
2019-03-23T13:42:42.429Z,12.03
2019-03-23T13:45:15.720Z,14.87
2019-03-23T13:47:48.171Z,11.77
2019-03-23T13:50:27.448Z,10.03
2019-03-23T13:53:00.022Z,9.77
2019-03-23T13:55:34.529Z,10.37
2019-03-23T13:58:16.691Z,10.27
2019-03-23T14:00:49.292Z,10.33
2019-03-23T14:03:21.823Z,9.87
2019-03-23T14:05:54.303Z,8.53
2019-03-23T14:08:26.862Z,10.33
2019-03-23T14:10:59.502Z,10.27
2019-03-23T14:13:32.161Z,13.77
2019-03-23T14:16:04.903Z,12.13
2019-03-23T14:18:37.600Z,14.20
2019-03-23T14:21:10.140Z,10.57
2019-03-23T14:23:42.683Z,11.40
2019-03-23T14:26:15.301Z,13.00
2019-03-23T14:28:47.809Z,11.73
2019-03-23T14:31:20.461Z,9.23
2019-03-23T14:33:53.151Z,11.87
2019-03-23T14:36:25.901Z,13.63
2019-03-23T14:38:58.582Z,14.00
2019-03-23T14:41:31.145Z,12.87
2019-03-23T14:44:04.137Z,10.97
2019-03-23T14:46:36.933Z,10.13
2019-03-23T14:49:09.654Z,10.80
2019-03-23T14:51:42.615Z,11.50
2019-03-23T14:54:15.099Z,11.80
2019-03-23T14:56:47.667Z,10.97
2019-03-23T14:59:21.277Z,12.00
2019-03-23T15:01:53.796Z,10.93
2019-03-23T15:04:26.480Z,12.30
2019-03-23T15:06:59.226Z,10.87
2019-03-23T15:09:31.805Z,14.23
2019-03-23T15:12:04.459Z,8.90
2019-03-23T15:14:37.156Z,10.27
2019-03-23T15:17:09.731Z,10.60
2019-03-23T15:19:42.406Z,9.80
2019-03-23T15:22:15.421Z,12.27
2019-03-23T15:24:48.452Z,10.03
2019-03-23T15:27:20.953Z,10.40
2019-03-23T15:29:53.446Z,10.20
2019-03-23T15:32:26.167Z,14.07
2019-03-23T15:34:58.598Z,11.13
2019-03-23T15:37:31.295Z,9.93
2019-03-23T15:40:03.966Z,10.00
2019-03-23T15:42:36.708Z,11.87
2019-03-23T15:45:10.385Z,12.33
2019-03-23T15:47:42.892Z,8.87
2019-03-23T15:50:15.855Z,12.33
2019-03-23T15:52:48.528Z,10.07
2019-03-23T15:55:21.325Z,9.00
2019-03-23T15:57:53.913Z,8.70
2019-03-23T16:00:26.861Z,8.83
2019-03-23T16:02:59.691Z,8.40
2019-03-23T16:05:32.177Z,9.20
2019-03-23T16:08:04.753Z,8.13
2019-03-23T16:10:37.368Z,7.27
2019-03-23T16:13:09.914Z,9.23
2019-03-23T16:15:42.667Z,8.90
2019-03-23T16:18:15.175Z,9.77
2019-03-23T16:20:47.615Z,8.13
2019-03-23T16:23:20.410Z,11.93
2019-03-23T16:25:52.888Z,8.07
2019-03-23T16:28:25.886Z,10.47
2019-03-23T16:30:58.557Z,10.97
2019-03-23T16:33:31.556Z,7.77
2019-03-23T16:36:04.230Z,8.50
2019-03-23T16:38:36.880Z,10.27
2019-03-23T16:41:09.407Z,9.63
2019-03-23T16:43:41.944Z,9.10
2019-03-23T16:46:14.407Z,10.00
2019-03-23T16:48:47.144Z,11.83
2019-03-23T16:51:21.022Z,12.33
2019-03-23T16:53:53.565Z,11.87
2019-03-23T16:56:26.062Z,14.70
2019-03-23T16:58:58.710Z,10.23
2019-03-23T17:01:31.638Z,10.83
2019-03-23T17:04:04.324Z,11.83
2019-03-23T17:06:45.961Z,12.00
2019-03-23T17:09:11.236Z,9.97
2019-03-23T17:11:43.785Z,13.63
2019-03-23T17:14:16.357Z,11.80
2019-03-23T17:16:48.954Z,13.10
2019-03-23T17:19:21.607Z,14.93
2019-03-23T17:21:54.165Z,14.40
2019-03-23T17:24:27.004Z,14.60
2019-03-23T17:26:59.910Z,11.70
2019-03-23T17:29:32.419Z,14.03
2019-03-23T17:32:05.117Z,14.43
2019-03-23T17:34:38.959Z,15.37
2019-03-23T17:37:11.505Z,18.33
2019-03-23T17:39:44.314Z,18.53
2019-03-23T17:42:16.975Z,16.63
2019-03-23T17:44:49.643Z,15.33
2019-03-23T17:47:22.203Z,16.57
2019-03-23T17:49:57.170Z,15.77
2019-03-23T17:52:29.294Z,13.87
2019-03-23T17:55:02.055Z,19.23
2019-03-23T17:57:34.786Z,15.93
2019-03-23T18:00:08.756Z,17.20
2019-03-23T18:02:42.745Z,18.27
2019-03-23T18:05:15.385Z,17.20
2019-03-23T18:07:47.901Z,18.23
2019-03-23T18:10:20.714Z,18.87
2019-03-23T18:12:53.538Z,19.33
2019-03-23T18:15:27.170Z,22.30
2019-03-23T18:17:59.726Z,16.40
2019-03-23T18:20:32.258Z,19.13
2019-03-23T18:23:05.062Z,19.33
2019-03-23T18:25:37.764Z,21.87
2019-03-23T18:28:10.601Z,20.63
2019-03-23T18:30:44.798Z,18.20
2019-03-23T18:33:17.538Z,18.90
2019-03-23T18:35:50.335Z,22.17
2019-03-23T18:38:22.907Z,22.30
2019-03-23T18:40:55.609Z,21.67
2019-03-23T18:43:28.490Z,23.60
2019-03-23T18:46:01.294Z,21.83
2019-03-23T18:48:34.002Z,22.37
2019-03-23T18:51:06.783Z,21.80
2019-03-23T18:53:39.415Z,19.57
2019-03-23T18:56:12.038Z,21.63
2019-03-23T18:58:44.842Z,23.00
2019-03-23T19:01:17.458Z,22.20
2019-03-23T19:03:50.203Z,30.17
2019-03-23T19:06:23.040Z,24.37
2019-03-23T19:08:55.773Z,24.37
2019-03-23T19:11:28.598Z,25.87
2019-03-23T19:14:01.022Z,27.20
2019-03-23T19:16:33.682Z,25.33
2019-03-23T19:19:06.558Z,23.93
2019-03-23T19:21:39.315Z,25.63
2019-03-23T19:24:12.010Z,26.37
2019-03-23T19:26:44.603Z,33.23
2019-03-23T19:29:17.012Z,27.20
2019-03-23T19:31:49.726Z,29.33
2019-03-23T19:34:22.329Z,26.40
2019-03-23T19:36:54.918Z,31.30
2019-03-23T19:39:27.423Z,29.37
2019-03-23T19:42:00.119Z,32.23
2019-03-23T19:44:59.282Z,28.63
2019-03-23T19:47:31.642Z,28.80
2019-03-23T19:50:04.412Z,29.03
2019-03-23T19:52:36.566Z,32.70
2019-03-23T19:55:09.492Z,28.30
2019-03-23T19:57:41.662Z,32.00
2019-03-23T20:00:14.753Z,35.73
2019-03-23T20:02:47.316Z,32.90
2019-03-23T20:05:19.427Z,30.83
2019-03-23T20:07:51.693Z,33.23
2019-03-23T20:10:23.953Z,34.73
2019-03-23T20:12:56.282Z,32.43
2019-03-23T20:15:28.439Z,33.03
2019-03-23T20:18:00.636Z,31.87
2019-03-23T20:20:32.949Z,36.70
2019-03-23T20:23:05.105Z,37.17
2019-03-23T20:25:39.542Z,33.80
2019-03-23T20:28:11.115Z,35.23
2019-03-23T20:30:43.347Z,34.10
2019-03-23T20:33:19.622Z,36.53
2019-03-23T20:35:49.088Z,37.37
2019-03-23T20:38:21.487Z,36.10
2019-03-23T20:40:53.773Z,35.97
2019-03-23T20:43:26.077Z,37.00
2019-03-23T20:45:58.787Z,37.27
2019-03-23T20:48:31.027Z,36.27
2019-03-23T20:51:03.347Z,37.83
2019-03-23T20:53:35.928Z,36.10
2019-03-23T20:56:08.116Z,37.93
2019-03-23T20:58:40.567Z,35.27
2019-03-23T21:01:12.895Z,34.90
2019-03-23T21:03:45.156Z,38.37
2019-03-23T21:06:17.498Z,38.20
2019-03-23T21:08:49.676Z,39.17
2019-03-23T21:11:21.815Z,41.87
2019-03-23T21:13:54.021Z,37.33
2019-03-23T21:16:27.296Z,36.57
2019-03-23T21:18:59.496Z,36.87
2019-03-23T21:21:31.707Z,37.57
2019-03-23T21:24:04.015Z,35.03
2019-03-23T21:26:36.175Z,40.77
2019-03-23T21:29:08.447Z,40.23
2019-03-23T21:31:40.675Z,42.67
2019-03-23T21:34:12.787Z,42.07
2019-03-23T21:36:45.047Z,41.20
2019-03-23T21:39:17.427Z,45.30
2019-03-23T21:41:49.836Z,40.87
2019-03-23T21:44:30.682Z,41.47
2019-03-23T21:46:56.144Z,41.83
2019-03-23T21:49:28.347Z,46.43
2019-03-23T21:52:01.665Z,46.20
2019-03-23T21:54:33.970Z,51.88
2019-03-23T21:57:06.331Z,47.93
2019-03-23T21:59:39.280Z,49.30
2019-03-23T22:02:11.566Z,50.20
2019-03-23T22:04:43.828Z,51.20
2019-03-23T22:07:16.316Z,51.73
2019-03-23T22:09:48.571Z,51.23
2019-03-23T22:12:21.109Z,49.20
2019-03-23T22:14:53.282Z,49.27
2019-03-23T22:17:25.573Z,49.83
2019-03-23T22:19:57.673Z,52.07
2019-03-23T22:22:29.811Z,63.33
2019-03-23T22:25:02.004Z,59.77
2019-03-23T22:27:34.151Z,64.57
2019-03-23T22:30:08.771Z,74.73
2019-03-23T22:32:41.276Z,72.93
2019-03-23T22:35:13.535Z,78.13
2019-03-23T22:37:45.852Z,81.80
2019-03-23T22:40:18.209Z,81.50
2019-03-23T22:42:50.522Z,83.27
2019-03-23T22:45:22.752Z,81.77
2019-03-23T22:47:55.030Z,75.63
2019-03-23T22:50:27.333Z,77.17
2019-03-23T22:52:59.819Z,73.40
2019-03-23T22:55:32.106Z,73.90
2019-03-23T22:58:04.340Z,72.20
2019-03-23T23:00:44.033Z,67.03
2019-03-23T23:03:16.303Z,63.40
2019-03-23T23:05:48.519Z,60.60
2019-03-23T23:08:21.306Z,63.77
2019-03-23T23:10:53.636Z,59.67
2019-03-23T23:13:26.050Z,53.47
2019-03-23T23:15:58.284Z,53.13
2019-03-23T23:18:30.581Z,48.53
2019-03-23T23:21:02.793Z,53.67
2019-03-23T23:23:35.354Z,49.97
2019-03-23T23:26:07.685Z,56.20
2019-03-23T23:28:39.873Z,63.40
2019-03-23T23:31:13.443Z,61.87
2019-03-23T23:33:45.603Z,63.90
2019-03-23T23:36:18.093Z,67.87
2019-03-23T23:38:52.457Z,53.07
2019-03-23T23:41:24.459Z,46.77
2019-03-23T23:43:56.619Z,41.83
2019-03-23T23:46:29.334Z,35.77
2019-03-23T23:49:01.497Z,39.30
2019-03-23T23:51:33.855Z,33.73
2019-03-23T23:54:06.275Z,36.53
2019-03-23T23:56:38.476Z,31.37
2019-03-23T23:59:10.793Z,35.27
